KCTZ

Details ICAO KCTZ
Name SAMPSON CO
Region United States
Timezone America/New_York (UTC-4.0)
Plans Departing 10
Arriving 5
Stats Elevation 148 ft / 45 m (AMSL)
Location 34.974939° -78.365629°
Runways 1
Magnetic Variation 9.300° W
Sunrise 2018-05-21 10:07:18 UTC / 2018-05-21 06:07:18 Local
Sunset 2018-05-22 00:15:42 UTC / 2018-05-21 20:15:42 Local
Advertisement - Login to hide

Runways

ID Width Length Bearing (true) Bearing (mag) Surface Threshold Offset Overrun Length
06 75 ft / 23 m 5,002 ft / 1,524 m 50.86° 60.16° Asphalt 0 ft / 0 m 0 ft / 0 m
24 75 ft / 23 m 5,002 ft / 1,524 m 230.87° 240.17° Asphalt 0 ft / 0 m 0 ft / 0 m

Map

Weather


0- 5 10 15 20 25 30 35+ Temperature / ° C

Clouds and Precipitation
Forecast for 2018-05-21 06:00 UTC. Updated 2 hours ago

Ground ~20,000 ft ~40,000 ft Winds

METAR

KCTZ 210715Z AUTO 00000KT 10SM CLR 22/22 A3012 RMK AO2 T02170217

TAF

Not found

Frequencies

Recorded 119.12 MHz AWOS 3
Approach 133.00 MHz FAYETTEVILLE APP/DEP
Unicom 122.80 MHz CTAF/UNICOM
Warning: Do not use this data for real-world aviation or navigation. No guarantee of current accuracy is given.